sensor_id;sensor_type;location;lat;lon;timestamp;P1;durP1;ratioP1;P2;durP2;ratioP2
15931;SDS011;8065;49.520;11.284;2024-01-06T00:01:36;12.07;;;7.30;;
15931;SDS011;8065;49.520;11.284;2024-01-06T00:04:04;10.57;;;7.13;;
15931;SDS011;8065;49.520;11.284;2024-01-06T00:06:32;10.00;;;7.00;;
15931;SDS011;8065;49.520;11.284;2024-01-06T00:09:01;11.37;;;7.60;;
15931;SDS011;8065;49.520;11.284;2024-01-06T00:11:29;9.67;;;7.20;;
15931;SDS011;8065;49.520;11.284;2024-01-06T00:13:57;9.07;;;7.30;;
15931;SDS011;8065;49.520;11.284;2024-01-06T00:16:28;8.43;;;7.13;;
15931;SDS011;8065;49.520;11.284;2024-01-06T00:18:56;9.00;;;7.57;;
15931;SDS011;8065;49.520;11.284;2024-01-06T00:21:25;11.90;;;6.67;;
15931;SDS011;8065;49.520;11.284;2024-01-06T00:23:51;8.80;;;6.80;;
15931;SDS011;8065;49.520;11.284;2024-01-06T00:26:21;12.07;;;7.63;;
15931;SDS011;8065;49.520;11.284;2024-01-06T00:28:49;9.77;;;6.80;;
15931;SDS011;8065;49.520;11.284;2024-01-06T00:31:17;9.20;;;6.53;;
15931;SDS011;8065;49.520;11.284;2024-01-06T00:33:48;11.57;;;7.37;;
15931;SDS011;8065;49.520;11.284;2024-01-06T00:36:16;9.63;;;6.90;;
15931;SDS011;8065;49.520;11.284;2024-01-06T00:38:45;11.60;;;6.57;;
15931;SDS011;8065;49.520;11.284;2024-01-06T00:41:13;7.40;;;6.53;;
15931;SDS011;8065;49.520;11.284;2024-01-06T00:43:42;9.53;;;7.07;;
15931;SDS011;8065;49.520;11.284;2024-01-06T00:46:10;8.87;;;6.70;;
15931;SDS011;8065;49.520;11.284;2024-01-06T00:48:38;9.57;;;7.00;;
15931;SDS011;8065;49.520;11.284;2024-01-06T00:51:09;8.40;;;6.40;;
15931;SDS011;8065;49.520;11.284;2024-01-06T00:53:37;8.43;;;6.20;;
15931;SDS011;8065;49.520;11.284;2024-01-06T00:56:06;10.87;;;6.80;;
15931;SDS011;8065;49.520;11.284;2024-01-06T00:58:34;10.60;;;6.70;;
15931;SDS011;8065;49.520;11.284;2024-01-06T01:01:02;8.37;;;6.60;;
15931;SDS011;8065;49.520;11.284;2024-01-06T01:03:31;8.27;;;6.37;;
15931;SDS011;8065;49.520;11.284;2024-01-06T01:05:59;8.33;;;6.40;;
15931;SDS011;8065;49.520;11.284;2024-01-06T01:08:30;9.53;;;6.27;;
15931;SDS011;8065;49.520;11.284;2024-01-06T01:10:58;8.30;;;6.30;;
15931;SDS011;8065;49.520;11.284;2024-01-06T01:13:26;7.97;;;6.40;;
15931;SDS011;8065;49.520;11.284;2024-01-06T01:15:55;9.40;;;6.13;;
15931;SDS011;8065;49.520;11.284;2024-01-06T01:18:23;7.63;;;5.77;;
15931;SDS011;8065;49.520;11.284;2024-01-06T01:20:52;7.77;;;6.37;;
15931;SDS011;8065;49.520;11.284;2024-01-06T01:23:20;8.67;;;6.13;;
15931;SDS011;8065;49.520;11.284;2024-01-06T01:25:51;9.57;;;6.27;;
15931;SDS011;8065;49.520;11.284;2024-01-06T01:28:19;6.30;;;5.70;;
15931;SDS011;8065;49.520;11.284;2024-01-06T01:30:48;7.73;;;6.23;;
15931;SDS011;8065;49.520;11.284;2024-01-06T01:33:16;8.20;;;6.20;;
15931;SDS011;8065;49.520;11.284;2024-01-06T01:35:45;10.17;;;6.43;;
15931;SDS011;8065;49.520;11.284;2024-01-06T01:38:13;12.13;;;6.70;;
15931;SDS011;8065;49.520;11.284;2024-01-06T01:40:41;6.60;;;5.67;;
15931;SDS011;8065;49.520;11.284;2024-01-06T01:43:18;9.30;;;6.80;;
15931;SDS011;8065;49.520;11.284;2024-01-06T01:45:49;8.83;;;6.30;;
15931;SDS011;8065;49.520;11.284;2024-01-06T01:48:20;9.43;;;6.03;;
15931;SDS011;8065;49.520;11.284;2024-01-06T01:50:49;6.87;;;6.13;;
15931;SDS011;8065;49.520;11.284;2024-01-06T01:53:19;8.87;;;6.37;;
15931;SDS011;8065;49.520;11.284;2024-01-06T01:55:49;9.17;;;5.93;;
15931;SDS011;8065;49.520;11.284;2024-01-06T01:58:20;8.53;;;6.10;;
15931;SDS011;8065;49.520;11.284;2024-01-06T02:00:49;9.83;;;7.07;;
15931;SDS011;8065;49.520;11.284;2024-01-06T02:03:17;7.80;;;6.63;;
15931;SDS011;8065;49.520;11.284;2024-01-06T02:05:46;8.90;;;7.30;;
15931;SDS011;8065;49.520;11.284;2024-01-06T02:08:14;9.13;;;6.67;;
15931;SDS011;8065;49.520;11.284;2024-01-06T02:10:42;9.77;;;7.00;;
15931;SDS011;8065;49.520;11.284;2024-01-06T02:13:11;9.43;;;7.33;;
15931;SDS011;8065;49.520;11.284;2024-01-06T02:15:42;10.00;;;7.47;;
15931;SDS011;8065;49.520;11.284;2024-01-06T02:18:10;8.80;;;6.57;;
15931;SDS011;8065;49.520;11.284;2024-01-06T02:20:39;9.40;;;7.37;;
15931;SDS011;8065;49.520;11.284;2024-01-06T02:23:13;9.90;;;7.30;;
15931;SDS011;8065;49.520;11.284;2024-01-06T02:25:41;10.63;;;7.30;;
15931;SDS011;8065;49.520;11.284;2024-01-06T02:28:09;12.87;;;8.67;;
15931;SDS011;8065;49.520;11.284;2024-01-06T02:30:38;12.30;;;7.97;;
15931;SDS011;8065;49.520;11.284;2024-01-06T02:33:06;10.90;;;7.70;;
15931;SDS011;8065;49.520;11.284;2024-01-06T02:35:34;11.37;;;7.13;;
15931;SDS011;8065;49.520;11.284;2024-01-06T02:38:03;9.97;;;7.50;;
15931;SDS011;8065;49.520;11.284;2024-01-06T02:40:34;10.60;;;7.50;;
15931;SDS011;8065;49.520;11.284;2024-01-06T02:43:02;10.50;;;7.67;;
15931;SDS011;8065;49.520;11.284;2024-01-06T02:45:31;9.00;;;7.03;;
15931;SDS011;8065;49.520;11.284;2024-01-06T02:47:59;8.63;;;7.20;;
15931;SDS011;8065;49.520;11.284;2024-01-06T02:50:27;10.00;;;6.87;;
15931;SDS011;8065;49.520;11.284;2024-01-06T02:52:55;9.57;;;6.60;;
15931;SDS011;8065;49.520;11.284;2024-01-06T02:55:24;9.40;;;7.40;;
15931;SDS011;8065;49.520;11.284;2024-01-06T02:57:54;8.40;;;6.37;;
15931;SDS011;8065;49.520;11.284;2024-01-06T03:00:23;9.00;;;6.53;;
15931;SDS011;8065;49.520;11.284;2024-01-06T03:02:51;8.10;;;6.07;;
15931;SDS011;8065;49.520;11.284;2024-01-06T03:05:19;7.27;;;6.00;;
15931;SDS011;8065;49.520;11.284;2024-01-06T03:07:47;9.27;;;6.07;;
15931;SDS011;8065;49.520;11.284;2024-01-06T03:10:16;9.60;;;6.37;;
15931;SDS011;8065;49.520;11.284;2024-01-06T03:12:44;8.00;;;6.17;;
15931;SDS011;8065;49.520;11.284;2024-01-06T03:15:15;9.93;;;6.70;;
15931;SDS011;8065;49.520;11.284;2024-01-06T03:17:44;10.37;;;6.63;;
15931;SDS011;8065;49.520;11.284;2024-01-06T03:20:12;10.03;;;6.87;;
15931;SDS011;8065;49.520;11.284;2024-01-06T03:22:40;10.03;;;6.73;;
15931;SDS011;8065;49.520;11.284;2024-01-06T03:25:09;10.00;;;6.77;;
15931;SDS011;8065;49.520;11.284;2024-01-06T03:27:37;9.70;;;6.93;;
15931;SDS011;8065;49.520;11.284;2024-01-06T03:30:06;6.23;;;5.57;;
15931;SDS011;8065;49.520;11.284;2024-01-06T03:32:37;6.53;;;5.80;;
15931;SDS011;8065;49.520;11.284;2024-01-06T03:35:06;9.30;;;6.60;;
15931;SDS011;8065;49.520;11.284;2024-01-06T03:37:34;7.80;;;6.30;;
15931;SDS011;8065;49.520;11.284;2024-01-06T03:40:03;8.73;;;5.63;;
15931;SDS011;8065;49.520;11.284;2024-01-06T03:42:32;9.10;;;6.10;;
15931;SDS011;8065;49.520;11.284;2024-01-06T03:45:01;7.77;;;5.70;;
15931;SDS011;8065;49.520;11.284;2024-01-06T03:47:30;7.83;;;6.50;;
15931;SDS011;8065;49.520;11.284;2024-01-06T03:50:01;7.60;;;6.33;;
15931;SDS011;8065;49.520;11.284;2024-01-06T03:52:29;8.87;;;6.30;;
15931;SDS011;8065;49.520;11.284;2024-01-06T03:54:58;8.00;;;5.93;;
15931;SDS011;8065;49.520;11.284;2024-01-06T03:57:26;8.43;;;6.30;;
15931;SDS011;8065;49.520;11.284;2024-01-06T03:59:54;8.50;;;6.37;;
15931;SDS011;8065;49.520;11.284;2024-01-06T04:02:22;8.87;;;5.90;;
15931;SDS011;8065;49.520;11.284;2024-01-06T04:04:51;6.73;;;5.70;;
15931;SDS011;8065;49.520;11.284;2024-01-06T04:07:22;8.20;;;5.97;;
15931;SDS011;8065;49.520;11.284;2024-01-06T04:09:50;7.23;;;6.07;;
15931;SDS011;8065;49.520;11.284;2024-01-06T04:12:19;7.50;;;5.80;;
15931;SDS011;8065;49.520;11.284;2024-01-06T04:14:47;6.47;;;5.60;;
15931;SDS011;8065;49.520;11.284;2024-01-06T04:17:15;6.10;;;5.50;;
15931;SDS011;8065;49.520;11.284;2024-01-06T04:19:43;7.47;;;5.57;;
15931;SDS011;8065;49.520;11.284;2024-01-06T04:22:12;7.63;;;5.67;;
15931;SDS011;8065;49.520;11.284;2024-01-06T04:24:43;8.10;;;5.87;;
15931;SDS011;8065;49.520;11.284;2024-01-06T04:27:11;7.93;;;5.47;;
15931;SDS011;8065;49.520;11.284;2024-01-06T04:29:39;7.67;;;6.00;;
15931;SDS011;8065;49.520;11.284;2024-01-06T04:32:08;8.50;;;6.33;;
15931;SDS011;8065;49.520;11.284;2024-01-06T04:34:36;7.17;;;5.60;;
15931;SDS011;8065;49.520;11.284;2024-01-06T04:37:04;8.77;;;6.40;;
15931;SDS011;8065;49.520;11.284;2024-01-06T04:39:32;9.50;;;6.30;;
15931;SDS011;8065;49.520;11.284;2024-01-06T04:42:04;7.57;;;6.00;;
15931;SDS011;8065;49.520;11.284;2024-01-06T04:44:32;9.53;;;6.33;;
15931;SDS011;8065;49.520;11.284;2024-01-06T04:47:01;6.27;;;5.17;;
15931;SDS011;8065;49.520;11.284;2024-01-06T04:49:29;9.50;;;6.40;;
15931;SDS011;8065;49.520;11.284;2024-01-06T04:51:57;8.10;;;5.53;;
15931;SDS011;8065;49.520;11.284;2024-01-06T04:54:25;8.13;;;6.17;;
15931;SDS011;8065;49.520;11.284;2024-01-06T04:56:54;7.90;;;6.17;;
15931;SDS011;8065;49.520;11.284;2024-01-06T04:59:24;9.40;;;6.40;;
15931;SDS011;8065;49.520;11.284;2024-01-06T05:01:53;8.80;;;6.57;;
15931;SDS011;8065;49.520;11.284;2024-01-06T05:04:21;8.30;;;6.40;;
15931;SDS011;8065;49.520;11.284;2024-01-06T05:06:50;9.10;;;6.77;;
15931;SDS011;8065;49.520;11.284;2024-01-06T05:09:19;8.13;;;6.17;;
15931;SDS011;8065;49.520;11.284;2024-01-06T05:11:48;8.80;;;6.43;;
15931;SDS011;8065;49.520;11.284;2024-01-06T05:14:16;8.80;;;6.23;;
15931;SDS011;8065;49.520;11.284;2024-01-06T05:16:47;9.63;;;6.20;;
15931;SDS011;8065;49.520;11.284;2024-01-06T05:19:15;8.07;;;6.13;;
15931;SDS011;8065;49.520;11.284;2024-01-06T05:21:46;10.50;;;6.90;;
15931;SDS011;8065;49.520;11.284;2024-01-06T05:24:14;9.33;;;6.17;;
15931;SDS011;8065;49.520;11.284;2024-01-06T05:26:43;11.40;;;6.53;;
15931;SDS011;8065;49.520;11.284;2024-01-06T05:29:11;8.37;;;6.30;;
15931;SDS011;8065;49.520;11.284;2024-01-06T05:31:39;10.27;;;6.57;;
15931;SDS011;8065;49.520;11.284;2024-01-06T05:34:10;12.43;;;7.43;;
15931;SDS011;8065;49.520;11.284;2024-01-06T05:36:38;10.57;;;6.87;;
15931;SDS011;8065;49.520;11.284;2024-01-06T05:39:07;9.77;;;6.63;;
15931;SDS011;8065;49.520;11.284;2024-01-06T05:41:38;9.83;;;6.50;;
15931;SDS011;8065;49.520;11.284;2024-01-06T05:44:06;9.93;;;6.80;;
15931;SDS011;8065;49.520;11.284;2024-01-06T05:46:38;8.40;;;6.30;;
15931;SDS011;8065;49.520;11.284;2024-01-06T05:49:06;8.40;;;6.53;;
15931;SDS011;8065;49.520;11.284;2024-01-06T05:51:43;8.97;;;6.80;;
15931;SDS011;8065;49.520;11.284;2024-01-06T05:54:12;8.80;;;6.10;;
15931;SDS011;8065;49.520;11.284;2024-01-06T05:56:40;8.47;;;6.40;;
15931;SDS011;8065;49.520;11.284;2024-01-06T05:59:09;8.87;;;6.50;;
15931;SDS011;8065;49.520;11.284;2024-01-06T06:01:37;10.00;;;6.60;;
15931;SDS011;8065;49.520;11.284;2024-01-06T06:04:05;8.13;;;6.27;;
15931;SDS011;8065;49.520;11.284;2024-01-06T06:06:34;10.80;;;6.80;;
15931;SDS011;8065;49.520;11.284;2024-01-06T06:09:05;7.17;;;6.00;;
15931;SDS011;8065;49.520;11.284;2024-01-06T06:11:35;8.30;;;5.80;;
15931;SDS011;8065;49.520;11.284;2024-01-06T06:14:03;9.37;;;6.37;;
15931;SDS011;8065;49.520;11.284;2024-01-06T06:16:31;7.90;;;5.87;;
15931;SDS011;8065;49.520;11.284;2024-01-06T06:18:59;8.13;;;6.00;;
15931;SDS011;8065;49.520;11.284;2024-01-06T06:21:28;6.07;;;5.40;;
15931;SDS011;8065;49.520;11.284;2024-01-06T06:23:56;9.30;;;5.63;;
15931;SDS011;8065;49.520;11.284;2024-01-06T06:26:27;8.23;;;6.20;;
15931;SDS011;8065;49.520;11.284;2024-01-06T06:28:56;10.23;;;6.07;;
15931;SDS011;8065;49.520;11.284;2024-01-06T06:31:25;8.77;;;5.57;;
15931;SDS011;8065;49.520;11.284;2024-01-06T06:33:53;8.17;;;6.00;;
15931;SDS011;8065;49.520;11.284;2024-01-06T06:36:21;9.10;;;5.90;;
15931;SDS011;8065;49.520;11.284;2024-01-06T06:38:50;7.97;;;6.17;;
15931;SDS011;8065;49.520;11.284;2024-01-06T06:41:19;9.07;;;6.10;;
15931;SDS011;8065;49.520;11.284;2024-01-06T06:43:51;7.93;;;6.20;;
15931;SDS011;8065;49.520;11.284;2024-01-06T06:46:19;8.57;;;6.27;;
15931;SDS011;8065;49.520;11.284;2024-01-06T06:48:47;8.70;;;6.43;;
15931;SDS011;8065;49.520;11.284;2024-01-06T06:51:15;8.77;;;6.17;;
15931;SDS011;8065;49.520;11.284;2024-01-06T06:53:44;10.80;;;6.43;;
15931;SDS011;8065;49.520;11.284;2024-01-06T06:56:12;7.67;;;5.60;;
15931;SDS011;8065;49.520;11.284;2024-01-06T06:58:42;7.17;;;5.37;;
15931;SDS011;8065;49.520;11.284;2024-01-06T07:01:10;8.80;;;6.00;;
15931;SDS011;8065;49.520;11.284;2024-01-06T07:03:38;7.80;;;5.53;;
15931;SDS011;8065;49.520;11.284;2024-01-06T07:06:07;8.73;;;6.43;;
15931;SDS011;8065;49.520;11.284;2024-01-06T07:08:35;7.77;;;5.60;;
15931;SDS011;8065;49.520;11.284;2024-01-06T07:11:04;6.83;;;5.87;;
15931;SDS011;8065;49.520;11.284;2024-01-06T07:13:32;8.83;;;6.07;;
15931;SDS011;8065;49.520;11.284;2024-01-06T07:16:00;7.07;;;5.57;;
15931;SDS011;8065;49.520;11.284;2024-01-06T07:18:31;10.90;;;6.10;;
15931;SDS011;8065;49.520;11.284;2024-01-06T07:21:00;8.80;;;6.10;;
15931;SDS011;8065;49.520;11.284;2024-01-06T07:23:28;8.37;;;5.93;;
15931;SDS011;8065;49.520;11.284;2024-01-06T07:25:56;9.60;;;6.70;;
15931;SDS011;8065;49.520;11.284;2024-01-06T07:28:25;9.23;;;6.57;;
15931;SDS011;8065;49.520;11.284;2024-01-06T07:30:54;7.73;;;5.70;;
15931;SDS011;8065;49.520;11.284;2024-01-06T07:33:22;9.67;;;6.37;;
15931;SDS011;8065;49.520;11.284;2024-01-06T07:35:53;7.80;;;6.10;;
15931;SDS011;8065;49.520;11.284;2024-01-06T07:38:22;9.30;;;6.13;;
15931;SDS011;8065;49.520;11.284;2024-01-06T07:40:50;9.90;;;6.20;;
15931;SDS011;8065;49.520;11.284;2024-01-06T07:43:19;7.27;;;5.97;;
15931;SDS011;8065;49.520;11.284;2024-01-06T07:45:47;10.67;;;6.60;;
15931;SDS011;8065;49.520;11.284;2024-01-06T07:48:16;7.47;;;5.67;;
15931;SDS011;8065;49.520;11.284;2024-01-06T07:50:44;6.97;;;5.80;;
15931;SDS011;8065;49.520;11.284;2024-01-06T07:53:15;8.37;;;6.10;;
15931;SDS011;8065;49.520;11.284;2024-01-06T07:55:43;8.80;;;6.47;;
15931;SDS011;8065;49.520;11.284;2024-01-06T07:58:12;10.17;;;5.57;;
15931;SDS011;8065;49.520;11.284;2024-01-06T08:00:41;9.33;;;6.10;;
15931;SDS011;8065;49.520;11.284;2024-01-06T08:03:09;8.43;;;6.17;;
15931;SDS011;8065;49.520;11.284;2024-01-06T08:05:38;8.97;;;6.57;;
15931;SDS011;8065;49.520;11.284;2024-01-06T08:08:07;8.63;;;6.50;;
15931;SDS011;8065;49.520;11.284;2024-01-06T08:10:38;7.90;;;6.20;;
15931;SDS011;8065;49.520;11.284;2024-01-06T08:13:07;8.43;;;6.10;;
15931;SDS011;8065;49.520;11.284;2024-01-06T08:15:35;11.27;;;6.80;;
15931;SDS011;8065;49.520;11.284;2024-01-06T08:18:03;10.93;;;6.90;;
15931;SDS011;8065;49.520;11.284;2024-01-06T08:20:32;9.50;;;7.10;;
15931;SDS011;8065;49.520;11.284;2024-01-06T08:23:00;9.57;;;7.73;;
15931;SDS011;8065;49.520;11.284;2024-01-06T08:25:29;11.23;;;7.43;;
15931;SDS011;8065;49.520;11.284;2024-01-06T08:28:00;11.37;;;7.90;;
15931;SDS011;8065;49.520;11.284;2024-01-06T08:30:28;12.00;;;8.17;;
15931;SDS011;8065;49.520;11.284;2024-01-06T08:32:56;11.70;;;8.57;;
15931;SDS011;8065;49.520;11.284;2024-01-06T08:35:25;11.83;;;7.97;;
15931;SDS011;8065;49.520;11.284;2024-01-06T08:37:53;14.53;;;9.20;;
15931;SDS011;8065;49.520;11.284;2024-01-06T08:40:21;14.87;;;10.33;;
15931;SDS011;8065;49.520;11.284;2024-01-06T08:42:49;15.17;;;10.40;;
15931;SDS011;8065;49.520;11.284;2024-01-06T08:45:20;12.50;;;11.13;;
15931;SDS011;8065;49.520;11.284;2024-01-06T08:47:49;14.07;;;10.93;;
15931;SDS011;8065;49.520;11.284;2024-01-06T08:50:17;12.33;;;9.97;;
15931;SDS011;8065;49.520;11.284;2024-01-06T08:52:45;11.30;;;9.30;;
15931;SDS011;8065;49.520;11.284;2024-01-06T08:55:13;11.47;;;9.37;;
15931;SDS011;8065;49.520;11.284;2024-01-06T08:57:42;12.33;;;9.50;;
15931;SDS011;8065;49.520;11.284;2024-01-06T09:00:12;10.30;;;8.80;;
15931;SDS011;8065;49.520;11.284;2024-01-06T09:02:44;12.77;;;8.87;;
15931;SDS011;8065;49.520;11.284;2024-01-06T09:05:14;13.90;;;8.70;;
15931;SDS011;8065;49.520;11.284;2024-01-06T09:07:42;10.57;;;8.63;;
15931;SDS011;8065;49.520;11.284;2024-01-06T09:10:15;12.83;;;9.67;;
15931;SDS011;8065;49.520;11.284;2024-01-06T09:12:44;12.40;;;10.37;;
15931;SDS011;8065;49.520;11.284;2024-01-06T09:15:12;12.33;;;10.03;;
15931;SDS011;8065;49.520;11.284;2024-01-06T09:17:41;11.93;;;9.00;;
15931;SDS011;8065;49.520;11.284;2024-01-06T09:20:12;15.10;;;10.10;;
15931;SDS011;8065;49.520;11.284;2024-01-06T09:22:42;13.27;;;10.10;;
15931;SDS011;8065;49.520;11.284;2024-01-06T09:25:10;14.13;;;10.27;;
15931;SDS011;8065;49.520;11.284;2024-01-06T09:27:39;14.00;;;10.63;;
15931;SDS011;8065;49.520;11.284;2024-01-06T09:30:08;13.97;;;10.33;;
15931;SDS011;8065;49.520;11.284;2024-01-06T09:32:37;16.97;;;11.83;;
15931;SDS011;8065;49.520;11.284;2024-01-06T09:35:05;17.40;;;13.17;;
15931;SDS011;8065;49.520;11.284;2024-01-06T09:37:36;21.80;;;16.37;;
15931;SDS011;8065;49.520;11.284;2024-01-06T09:40:06;22.00;;;17.37;;
15931;SDS011;8065;49.520;11.284;2024-01-06T09:42:39;25.67;;;16.63;;
15931;SDS011;8065;49.520;11.284;2024-01-06T09:45:07;21.97;;;16.20;;
15931;SDS011;8065;49.520;11.284;2024-01-06T09:47:36;22.70;;;15.77;;
15931;SDS011;8065;49.520;11.284;2024-01-06T09:50:09;17.47;;;14.00;;
15931;SDS011;8065;49.520;11.284;2024-01-06T09:52:40;24.47;;;16.80;;
15931;SDS011;8065;49.520;11.284;2024-01-06T09:55:09;19.83;;;15.87;;
15931;SDS011;8065;49.520;11.284;2024-01-06T09:57:39;21.67;;;16.30;;
15931;SDS011;8065;49.520;11.284;2024-01-06T10:00:07;19.10;;;15.90;;
15931;SDS011;8065;49.520;11.284;2024-01-06T10:02:37;18.27;;;14.20;;
15931;SDS011;8065;49.520;11.284;2024-01-06T10:05:06;18.87;;;12.07;;
15931;SDS011;8065;49.520;11.284;2024-01-06T10:07:35;16.27;;;12.90;;
15931;SDS011;8065;49.520;11.284;2024-01-06T10:10:06;18.17;;;12.27;;
15931;SDS011;8065;49.520;11.284;2024-01-06T10:12:36;15.60;;;12.53;;
15931;SDS011;8065;49.520;11.284;2024-01-06T10:15:06;22.43;;;16.40;;
15931;SDS011;8065;49.520;11.284;2024-01-06T10:17:36;24.63;;;16.90;;
15931;SDS011;8065;49.520;11.284;2024-01-06T10:20:09;25.30;;;17.43;;
15931;SDS011;8065;49.520;11.284;2024-01-06T10:22:40;20.80;;;15.47;;
15931;SDS011;8065;49.520;11.284;2024-01-06T10:25:12;17.27;;;12.50;;
15931;SDS011;8065;49.520;11.284;2024-01-06T10:27:41;17.27;;;11.83;;
15931;SDS011;8065;49.520;11.284;2024-01-06T10:30:09;15.63;;;11.27;;
15931;SDS011;8065;49.520;11.284;2024-01-06T10:32:43;13.10;;;9.73;;
15931;SDS011;8065;49.520;11.284;2024-01-06T10:35:11;14.23;;;10.03;;
15931;SDS011;8065;49.520;11.284;2024-01-06T10:37:41;11.80;;;9.80;;
15931;SDS011;8065;49.520;11.284;2024-01-06T10:40:13;13.27;;;9.80;;
15931;SDS011;8065;49.520;11.284;2024-01-06T10:42:43;13.17;;;10.43;;
15931;SDS011;8065;49.520;11.284;2024-01-06T10:45:13;12.40;;;10.27;;
15931;SDS011;8065;49.520;11.284;2024-01-06T10:47:42;12.87;;;9.23;;
15931;SDS011;8065;49.520;11.284;2024-01-06T10:50:12;14.10;;;10.10;;
15931;SDS011;8065;49.520;11.284;2024-01-06T10:52:42;14.50;;;9.87;;
15931;SDS011;8065;49.520;11.284;2024-01-06T10:55:13;12.67;;;9.93;;
15931;SDS011;8065;49.520;11.284;2024-01-06T10:57:45;12.60;;;9.77;;
15931;SDS011;8065;49.520;11.284;2024-01-06T11:00:15;15.00;;;9.93;;
15931;SDS011;8065;49.520;11.284;2024-01-06T11:02:43;11.97;;;9.40;;
15931;SDS011;8065;49.520;11.284;2024-01-06T11:05:13;12.90;;;9.30;;
15931;SDS011;8065;49.520;11.284;2024-01-06T11:07:43;13.07;;;9.10;;
15931;SDS011;8065;49.520;11.284;2024-01-06T11:10:16;12.97;;;9.37;;
15931;SDS011;8065;49.520;11.284;2024-01-06T11:15:44;11.17;;;9.07;;
15931;SDS011;8065;49.520;11.284;2024-01-06T11:21:14;13.20;;;8.37;;
15931;SDS011;8065;49.520;11.284;2024-01-06T11:26:40;10.27;;;8.70;;
15931;SDS011;8065;49.520;11.284;2024-01-06T11:29:10;13.43;;;8.50;;
15931;SDS011;8065;49.520;11.284;2024-01-06T11:31:39;11.23;;;8.17;;
15931;SDS011;8065;49.520;11.284;2024-01-06T11:34:12;9.80;;;7.27;;
15931;SDS011;8065;49.520;11.284;2024-01-06T11:36:44;10.13;;;7.00;;
15931;SDS011;8065;49.520;11.284;2024-01-06T11:42:04;9.53;;;6.50;;
15931;SDS011;8065;49.520;11.284;2024-01-06T11:44:33;10.63;;;6.20;;
15931;SDS011;8065;49.520;11.284;2024-01-06T11:47:02;8.37;;;6.40;;
15931;SDS011;8065;49.520;11.284;2024-01-06T11:49:32;9.10;;;6.57;;
15931;SDS011;8065;49.520;11.284;2024-01-06T11:52:00;9.80;;;6.30;;
15931;SDS011;8065;49.520;11.284;2024-01-06T11:54:29;8.50;;;6.50;;
15931;SDS011;8065;49.520;11.284;2024-01-06T11:56:58;9.50;;;6.40;;
15931;SDS011;8065;49.520;11.284;2024-01-06T11:59:29;9.43;;;6.87;;
15931;SDS011;8065;49.520;11.284;2024-01-06T12:01:57;9.60;;;6.23;;
15931;SDS011;8065;49.520;11.284;2024-01-06T12:04:26;6.63;;;5.70;;
15931;SDS011;8065;49.520;11.284;2024-01-06T12:07:04;8.07;;;5.47;;
15931;SDS011;8065;49.520;11.284;2024-01-06T12:09:33;8.87;;;5.90;;
15931;SDS011;8065;49.520;11.284;2024-01-06T12:12:01;7.17;;;5.47;;
15931;SDS011;8065;49.520;11.284;2024-01-06T12:14:33;7.33;;;5.20;;
15931;SDS011;8065;49.520;11.284;2024-01-06T12:17:01;9.03;;;5.60;;
15931;SDS011;8065;49.520;11.284;2024-01-06T12:19:30;7.37;;;4.70;;
15931;SDS011;8065;49.520;11.284;2024-01-06T12:21:59;8.07;;;5.57;;
15931;SDS011;8065;49.520;11.284;2024-01-06T12:24:27;6.83;;;4.90;;
15931;SDS011;8065;49.520;11.284;2024-01-06T12:26:56;7.50;;;5.43;;
15931;SDS011;8065;49.520;11.284;2024-01-06T12:29:26;8.87;;;5.70;;
15931;SDS011;8065;49.520;11.284;2024-01-06T12:31:59;8.23;;;5.77;;
15931;SDS011;8065;49.520;11.284;2024-01-06T12:34:28;10.57;;;6.17;;
15931;SDS011;8065;49.520;11.284;2024-01-06T12:36:56;8.73;;;6.23;;
15931;SDS011;8065;49.520;11.284;2024-01-06T12:39:27;8.27;;;5.33;;
15931;SDS011;8065;49.520;11.284;2024-01-06T12:41:56;9.27;;;5.30;;
15931;SDS011;8065;49.520;11.284;2024-01-06T12:44:25;6.87;;;5.30;;
15931;SDS011;8065;49.520;11.284;2024-01-06T12:46:53;8.07;;;5.47;;
15931;SDS011;8065;49.520;11.284;2024-01-06T12:49:24;7.57;;;6.00;;
15931;SDS011;8065;49.520;11.284;2024-01-06T12:51:53;8.40;;;7.53;;
15931;SDS011;8065;49.520;11.284;2024-01-06T12:54:21;10.73;;;9.10;;
15931;SDS011;8065;49.520;11.284;2024-01-06T12:56:50;9.40;;;7.57;;
15931;SDS011;8065;49.520;11.284;2024-01-06T12:59:18;8.90;;;6.83;;
15931;SDS011;8065;49.520;11.284;2024-01-06T13:01:46;8.30;;;6.97;;
15931;SDS011;8065;49.520;11.284;2024-01-06T13:04:15;7.70;;;6.00;;
15931;SDS011;8065;49.520;11.284;2024-01-06T13:06:46;6.40;;;5.67;;
15931;SDS011;8065;49.520;11.284;2024-01-06T13:09:14;6.50;;;5.43;;
15931;SDS011;8065;49.520;11.284;2024-01-06T13:11:43;6.67;;;5.03;;
15931;SDS011;8065;49.520;11.284;2024-01-06T13:14:12;6.10;;;4.30;;
15931;SDS011;8065;49.520;11.284;2024-01-06T13:16:41;7.33;;;4.60;;
15931;SDS011;8065;49.520;11.284;2024-01-06T13:19:09;5.83;;;4.27;;
15931;SDS011;8065;49.520;11.284;2024-01-06T13:21:37;5.00;;;3.67;;
15931;SDS011;8065;49.520;11.284;2024-01-06T13:24:09;5.67;;;4.60;;
15931;SDS011;8065;49.520;11.284;2024-01-06T13:26:37;4.53;;;4.13;;
15931;SDS011;8065;49.520;11.284;2024-01-06T13:29:06;6.67;;;4.10;;
15931;SDS011;8065;49.520;11.284;2024-01-06T13:31:34;5.23;;;4.23;;
15931;SDS011;8065;49.520;11.284;2024-01-06T13:34:03;5.23;;;4.10;;
15931;SDS011;8065;49.520;11.284;2024-01-06T13:36:32;4.83;;;4.27;;
15931;SDS011;8065;49.520;11.284;2024-01-06T13:39:01;4.90;;;4.20;;
15931;SDS011;8065;49.520;11.284;2024-01-06T13:41:33;6.47;;;4.20;;
15931;SDS011;8065;49.520;11.284;2024-01-06T13:44:02;6.37;;;4.67;;
15931;SDS011;8065;49.520;11.284;2024-01-06T13:46:30;6.50;;;4.43;;
15931;SDS011;8065;49.520;11.284;2024-01-06T13:48:58;5.73;;;4.60;;
15931;SDS011;8065;49.520;11.284;2024-01-06T13:51:27;7.77;;;4.60;;
15931;SDS011;8065;49.520;11.284;2024-01-06T13:53:55;5.57;;;4.50;;
15931;SDS011;8065;49.520;11.284;2024-01-06T13:56:23;5.63;;;4.20;;
15931;SDS011;8065;49.520;11.284;2024-01-06T13:58:54;8.37;;;4.43;;
15931;SDS011;8065;49.520;11.284;2024-01-06T14:01:22;6.13;;;4.40;;
15931;SDS011;8065;49.520;11.284;2024-01-06T14:03:51;5.33;;;4.23;;
15931;SDS011;8065;49.520;11.284;2024-01-06T14:06:22;7.17;;;4.37;;
15931;SDS011;8065;49.520;11.284;2024-01-06T14:08:54;5.43;;;4.30;;
15931;SDS011;8065;49.520;11.284;2024-01-06T14:11:23;6.33;;;4.70;;
15931;SDS011;8065;49.520;11.284;2024-01-06T14:13:54;7.33;;;4.77;;
15931;SDS011;8065;49.520;11.284;2024-01-06T14:16:22;7.17;;;4.77;;
15931;SDS011;8065;49.520;11.284;2024-01-06T14:18:50;8.00;;;4.93;;
15931;SDS011;8065;49.520;11.284;2024-01-06T14:21:18;5.77;;;4.53;;
15931;SDS011;8065;49.520;11.284;2024-01-06T14:23:47;5.90;;;4.50;;
15931;SDS011;8065;49.520;11.284;2024-01-06T14:26:15;7.50;;;4.70;;
15931;SDS011;8065;49.520;11.284;2024-01-06T14:28:45;5.43;;;3.90;;
15931;SDS011;8065;49.520;11.284;2024-01-06T14:31:16;7.23;;;4.53;;
15931;SDS011;8065;49.520;11.284;2024-01-06T14:33:44;6.67;;;4.37;;
15931;SDS011;8065;49.520;11.284;2024-01-06T14:36:12;5.50;;;4.10;;
15931;SDS011;8065;49.520;11.284;2024-01-06T14:38:40;5.70;;;4.00;;
15931;SDS011;8065;49.520;11.284;2024-01-06T14:41:09;7.70;;;4.50;;
15931;SDS011;8065;49.520;11.284;2024-01-06T14:43:37;6.83;;;4.03;;
15931;SDS011;8065;49.520;11.284;2024-01-06T14:46:05;5.27;;;3.80;;
15931;SDS011;8065;49.520;11.284;2024-01-06T14:48:36;6.17;;;4.50;;
15931;SDS011;8065;49.520;11.284;2024-01-06T14:51:04;4.57;;;3.83;;
15931;SDS011;8065;49.520;11.284;2024-01-06T14:53:33;5.30;;;3.87;;
15931;SDS011;8065;49.520;11.284;2024-01-06T14:56:01;7.20;;;4.83;;
15931;SDS011;8065;49.520;11.284;2024-01-06T14:58:30;8.30;;;4.80;;
15931;SDS011;8065;49.520;11.284;2024-01-06T15:00:59;10.17;;;5.27;;
15931;SDS011;8065;49.520;11.284;2024-01-06T15:03:27;6.83;;;5.03;;
15931;SDS011;8065;49.520;11.284;2024-01-06T15:05:59;7.80;;;5.30;;